Time;durP1;ratioP1;P1;durP2;ratioP2;P2;SDS_P1;SDS_P2;PMS_P1;PMS_P2;Temp;Humidity;BMP_temperature;BMP_pressure;BME280_temperature;BME280_humidity;BME280_pressure;Samples;Min_cycle;Max_cycle;Signal;HPM_P1;HPM_P2
2021/05/16 00:01:33;;;;;;;10.30;5.83;;;;;;;11.19;85.41;96975.48;1713453;84;21051;-79
2021/05/16 00:03:59;;;;;;;6.05;4.03;;;;;;;11.23;84.61;96963.80;1713495;83;21462;-79
2021/05/16 00:06:26;;;;;;;4.28;3.87;;;;;;;11.25;84.58;96960.59;1713458;84;21079;-78
2021/05/16 00:08:54;;;;;;;6.35;4.25;;;;;;;11.26;84.95;96963.66;1713587;83;21115;-78
2021/05/16 00:11:21;;;;;;;8.38;3.55;;;;;;;11.29;84.88;96953.37;1713605;84;21008;-78
2021/05/16 00:13:48;;;;;;;6.70;3.80;;;;;;;11.35;84.87;96958.36;1713501;83;21095;-78
2021/05/16 00:16:15;;;;;;;6.83;3.30;;;;;;;11.38;84.91;96958.67;1713598;84;21449;-79
2021/05/16 00:18:42;;;;;;;7.37;3.42;;;;;;;11.35;84.71;96959.20;1713549;84;21167;-78
2021/05/16 00:21:09;;;;;;;8.78;3.40;;;;;;;11.34;84.68;96953.51;1713637;84;21094;-78
2021/05/16 00:23:35;;;;;;;9.25;3.70;;;;;;;11.33;84.71;96950.92;1713544;83;21056;-78
2021/05/16 00:26:02;;;;;;;4.00;3.45;;;;;;;11.37;84.54;96948.52;1713539;83;21036;-78
2021/05/16 00:28:29;;;;;;;6.55;3.33;;;;;;;11.40;84.48;96940.88;1713499;84;21142;-78
2021/05/16 00:30:57;;;;;;;6.22;3.60;;;;;;;11.44;84.42;96945.09;1713596;84;21047;-78
2021/05/16 00:33:24;;;;;;;4.28;3.27;;;;;;;11.42;84.32;96957.10;1721353;82;21397;-78
2021/05/16 00:35:51;;;;;;;6.33;3.50;;;;;;;11.41;84.14;96958.53;1711443;83;21555;-79
2021/05/16 00:38:18;;;;;;;6.97;3.22;;;;;;;11.35;83.67;96959.69;1711196;83;21060;-78
2021/05/16 00:40:47;;;;;;;3.55;3.25;;;;;;;11.30;83.52;96963.03;1711174;84;21024;-79
2021/05/16 00:43:14;;;;;;;7.28;3.72;;;;;;;11.17;83.86;96961.45;1711374;84;21484;-78
2021/05/16 00:45:43;;;;;;;4.33;3.12;;;;;;;11.08;83.83;96950.35;1711399;84;21036;-78
2021/05/16 00:48:09;;;;;;;4.33;3.35;;;;;;;11.03;83.56;96947.06;1711265;83;21201;-78
2021/05/16 00:50:41;;;;;;;4.55;3.25;;;;;;;10.97;84.65;96939.42;1711423;84;21063;-78
2021/05/16 00:53:09;;;;;;;4.28;3.30;;;;;;;10.96;83.41;96943.84;1711395;83;21048;-78
2021/05/16 00:55:37;;;;;;;5.67;3.55;;;;;;;10.95;83.43;96949.22;1711213;83;21470;-78
2021/05/16 00:58:05;;;;;;;5.45;3.77;;;;;;;10.94;83.48;96952.81;1711223;84;21647;-78
2021/05/16 01:00:40;;;;;;;7.05;3.70;;;;;;;10.90;83.41;96954.75;1711188;84;21608;-78
2021/05/16 01:03:09;;;;;;;5.83;3.98;;;;;;;10.87;83.75;96949.59;1710938;84;21048;-78
2021/05/16 01:05:39;;;;;;;5.62;3.58;;;;;;;10.83;85.26;96960.81;1711289;83;21063;-78
2021/05/16 01:08:07;;;;;;;5.40;3.33;;;;;;;10.77;84.86;96955.80;1711308;83;22324;-78
2021/05/16 01:10:34;;;;;;;7.72;3.42;;;;;;;10.74;84.55;96956.39;1711296;84;21532;-78
2021/05/16 01:13:05;;;;;;;14.63;4.70;;;;;;;10.71;85.02;96957.40;1711390;83;21393;-78
2021/05/16 01:15:35;;;;;;;6.60;4.00;;;;;;;10.71;83.97;96959.20;1710411;84;21084;-79
2021/05/16 01:18:01;;;;;;;4.58;3.65;;;;;;;10.66;85.22;96952.33;1711298;84;21075;-78
2021/05/16 01:20:33;;;;;;;7.12;3.87;;;;;;;10.64;84.21;96954.20;1711277;84;21533;-78
2021/05/16 01:23:07;;;;;;;5.95;3.62;;;;;;;10.63;86.14;96959.08;1711191;84;21052;-78
2021/05/16 01:25:44;;;;;;;4.45;3.47;;;;;;;10.63;84.97;96961.73;1711261;83;21040;-78
2021/05/16 01:28:13;;;;;;;5.22;3.22;;;;;;;10.63;84.82;96960.89;1711207;84;21066;-78
2021/05/16 01:30:43;;;;;;;5.72;3.77;;;;;;;10.59;84.92;96942.09;1691004;84;21095;-78
2021/05/16 01:33:11;;;;;;;4.72;4.05;;;;;;;10.58;85.15;96948.33;1708027;83;21083;-78
2021/05/16 01:35:39;;;;;;;4.65;3.65;;;;;;;10.60;84.40;96946.45;1686932;85;21540;-78
2021/05/16 01:38:07;;;;;;;4.55;3.33;;;;;;;10.62;84.67;96941.47;1649900;86;21527;-77
2021/05/16 01:40:38;;;;;;;5.97;3.80;;;;;;;10.61;84.75;96945.52;1657707;86;21061;-78
2021/05/16 01:43:12;;;;;;;6.22;3.77;;;;;;;10.63;85.21;96946.32;1637350;86;21475;-78
2021/05/16 01:45:39;;;;;;;4.08;3.30;;;;;;;10.65;84.16;96951.06;1658118;86;21527;-78
2021/05/16 01:48:07;;;;;;;6.30;3.58;;;;;;;10.65;84.83;96952.39;1665251;86;21531;-78
2021/05/16 01:50:36;;;;;;;4.20;3.35;;;;;;;10.62;84.47;96944.13;1665218;86;21077;-78
2021/05/16 01:53:06;;;;;;;6.35;4.17;;;;;;;10.60;84.58;96949.10;1663364;86;21515;-78
2021/05/16 01:55:33;;;;;;;5.05;3.20;;;;;;;10.60;84.15;96950.42;1656499;86;21125;-78
2021/05/16 01:58:02;;;;;;;5.55;3.50;;;;;;;10.59;84.86;96951.36;1652292;86;21046;-78
2021/05/16 02:00:38;;;;;;;4.45;3.30;;;;;;;10.56;84.56;96939.95;1643661;86;21534;-78
2021/05/16 02:03:06;;;;;;;6.03;3.72;;;;;;;10.56;84.99;96948.39;1663417;86;21651;-78
2021/05/16 02:05:35;;;;;;;5.22;3.45;;;;;;;10.60;84.25;96951.75;1656097;86;21570;-78
2021/05/16 02:08:04;;;;;;;3.17;2.80;;;;;;;10.64;84.32;96950.23;1665352;86;21073;-78
2021/05/16 02:10:32;;;;;;;6.42;2.60;;;;;;;10.65;84.53;96943.12;1665405;85;21629;-78
2021/05/16 02:13:01;;;;;;;4.90;2.58;;;;;;;10.65;84.93;96945.31;1653269;86;21062;-78
2021/05/16 02:15:27;;;;;;;4.95;2.80;;;;;;;10.69;84.41;96940.72;1653568;86;21117;-78
2021/05/16 02:17:55;;;;;;;2.75;2.45;;;;;;;10.74;84.46;96948.44;1665242;86;21049;-78
2021/05/16 02:20:23;;;;;;;6.20;2.70;;;;;;;10.81;84.53;96949.41;1653405;86;21073;-78
2021/05/16 02:22:50;;;;;;;3.70;2.85;;;;;;;10.87;84.52;96946.09;1686340;85;21028;-78
2021/05/16 02:25:18;;;;;;;3.70;3.08;;;;;;;10.92;84.46;96949.38;1681161;85;21044;-78
2021/05/16 02:27:49;;;;;;;2.90;2.35;;;;;;;10.95;84.29;96949.22;1681233;85;21088;-79
2021/05/16 02:30:19;;;;;;;4.42;2.70;;;;;;;10.95;84.52;96941.27;1681290;85;21060;-78
2021/05/16 02:32:47;;;;;;;4.55;3.00;;;;;;;10.96;84.39;96947.83;1683210;83;21032;-78
2021/05/16 02:35:14;;;;;;;5.83;2.70;;;;;;;10.94;84.21;96946.19;1712924;84;21033;-78
2021/05/16 02:37:45;;;;;;;4.70;2.83;;;;;;;10.88;83.92;96946.48;1712765;84;21040;-78
2021/05/16 02:40:13;;;;;;;5.42;3.20;;;;;;;10.83;83.70;96950.66;1684986;84;21076;-78
2021/05/16 02:42:40;;;;;;;4.30;2.80;;;;;;;10.83;83.78;96946.23;1710810;84;21072;-79
2021/05/16 02:45:10;;;;;;;3.77;3.17;;;;;;;10.82;83.80;96952.92;1703212;84;21084;-79
2021/05/16 02:47:37;;;;;;;5.85;3.37;;;;;;;10.79;83.60;96943.33;1702994;84;21016;-78
2021/05/16 02:50:06;;;;;;;3.90;3.05;;;;;;;10.74;83.26;96949.77;1703217;84;21043;-78
2021/05/16 02:52:35;;;;;;;5.00;3.87;;;;;;;10.68;83.12;96954.91;1700252;84;21080;-78
2021/05/16 02:55:04;;;;;;;4.62;3.62;;;;;;;10.62;83.24;96951.20;1703052;84;21092;-78
2021/05/16 02:57:31;;;;;;;4.03;3.40;;;;;;;10.53;83.39;96949.39;1703139;84;21065;-78
2021/05/16 02:59:58;;;;;;;8.08;4.20;;;;;;;10.46;83.49;96950.59;1703125;84;21028;-78
2021/05/16 03:02:25;;;;;;;5.22;3.72;;;;;;;10.39;83.74;96936.73;1703123;84;21029;-78
2021/05/16 03:04:52;;;;;;;7.97;3.80;;;;;;;10.32;83.74;96937.95;1702997;84;21080;-78
2021/05/16 03:07:19;;;;;;;7.25;3.45;;;;;;;10.26;83.97;96936.92;1702903;84;21502;-78
2021/05/16 03:09:46;;;;;;;5.05;3.40;;;;;;;10.24;86.43;96938.31;1703096;84;21056;-78
2021/05/16 03:12:14;;;;;;;4.78;3.40;;;;;;;10.21;84.40;96938.44;1683215;84;21100;-78
2021/05/16 03:14:41;;;;;;;4.33;3.27;;;;;;;10.21;84.18;96942.89;1683256;84;21056;-78
2021/05/16 03:17:08;;;;;;;4.10;3.50;;;;;;;10.15;84.34;96939.59;1703230;84;21077;-78
2021/05/16 03:19:35;;;;;;;4.12;3.55;;;;;;;10.11;84.58;96930.06;1703089;84;21087;-78
2021/05/16 03:22:02;;;;;;;6.25;3.80;;;;;;;10.08;84.60;96938.13;1703031;84;21068;-78
2021/05/16 03:24:30;;;;;;;5.62;3.70;;;;;;;10.06;84.70;96942.65;1703041;84;21502;-78
2021/05/16 03:26:57;;;;;;;3.98;3.55;;;;;;;10.07;84.96;96942.17;1703092;84;21048;-78
2021/05/16 03:29:25;;;;;;;4.72;3.40;;;;;;;10.06;85.27;96948.39;1703032;84;21052;-78
2021/05/16 03:31:51;;;;;;;5.12;3.65;;;;;;;10.06;85.11;96947.08;1703156;84;21076;-78
2021/05/16 03:34:18;;;;;;;5.62;3.50;;;;;;;10.04;85.05;96942.71;1702998;83;21529;-78
2021/05/16 03:36:44;;;;;;;5.17;4.40;;;;;;;10.02;86.70;96941.91;1703225;84;21040;-78
2021/05/16 03:39:11;;;;;;;6.30;3.60;;;;;;;9.97;88.23;96935.11;1703485;84;21480;-79
2021/05/16 03:41:37;;;;;;;5.83;3.77;;;;;;;9.95;87.32;96939.59;1703632;84;21064;-78
2021/05/16 03:44:06;;;;;;;6.15;3.70;;;;;;;9.92;87.06;96941.08;1683505;84;21044;-79
2021/05/16 03:46:33;;;;;;;5.87;3.67;;;;;;;9.89;87.19;96938.94;1703263;84;21045;-78
2021/05/16 03:49:00;;;;;;;5.83;3.95;;;;;;;9.93;86.40;96944.11;1703243;84;21056;-78
2021/05/16 03:51:28;;;;;;;5.17;3.75;;;;;;;9.94;86.98;96937.44;1703092;84;21068;-78
2021/05/16 03:53:54;;;;;;;5.97;3.90;;;;;;;9.98;86.40;96942.13;1703301;84;21052;-78
2021/05/16 03:56:21;;;;;;;5.10;3.95;;;;;;;9.96;88.96;96936.89;1703256;84;21057;-78
2021/05/16 03:58:47;;;;;;;4.83;3.75;;;;;;;9.98;87.43;96933.73;1703250;84;21549;-78
2021/05/16 04:01:14;;;;;;;5.53;3.60;;;;;;;10.04;87.11;96927.28;1703209;84;21040;-78
2021/05/16 04:03:41;;;;;;;5.58;3.45;;;;;;;10.08;87.58;96931.52;1703185;84;20996;-78
2021/05/16 04:06:08;;;;;;;7.37;3.92;;;;;;;10.12;87.60;96927.80;1703227;84;21075;-78
2021/05/16 04:08:35;;;;;;;5.75;3.52;;;;;;;10.19;87.99;96933.69;1703214;84;21076;-78
2021/05/16 04:11:01;;;;;;;6.20;3.10;;;;;;;10.27;87.85;96932.02;1683169;84;21814;-78
2021/05/16 04:13:28;;;;;;;3.15;2.67;;;;;;;10.34;87.06;96930.79;1703266;84;21073;-79
2021/05/16 04:15:54;;;;;;;4.58;2.95;;;;;;;10.42;87.01;96927.78;1703241;84;21060;-79
2021/05/16 04:18:21;;;;;;;4.20;3.20;;;;;;;10.50;86.77;96930.14;1703056;84;21088;-78
2021/05/16 04:20:47;;;;;;;4.45;3.27;;;;;;;10.58;86.78;96932.43;1703142;84;21469;-79
2021/05/16 04:23:14;;;;;;;4.53;3.40;;;;;;;10.63;86.62;96928.61;1703074;84;21088;-78
2021/05/16 04:25:41;;;;;;;3.25;2.95;;;;;;;10.69;86.47;96927.02;1703096;84;21021;-78
2021/05/16 04:28:07;;;;;;;8.70;3.17;;;;;;;10.76;86.24;96920.09;1703085;84;21505;-78
2021/05/16 04:30:34;;;;;;;8.25;4.10;;;;;;;10.83;86.16;96920.18;1703144;84;21008;-79
2021/05/16 04:33:00;;;;;;;7.67;3.27;;;;;;;10.86;85.83;96916.07;1703133;84;21063;-78
2021/05/16 04:35:27;;;;;;;4.70;3.77;;;;;;;10.91;85.67;96917.16;1682712;83;21044;-78
2021/05/16 04:37:54;;;;;;;6.15;3.55;;;;;;;10.94;85.42;96921.87;1681298;85;21056;-78
2021/05/16 04:40:21;;;;;;;4.00;2.92;;;;;;;10.98;84.90;96920.38;1681262;85;21087;-78
2021/05/16 04:42:50;;;;;;;4.30;3.17;;;;;;;11.02;84.95;96913.99;1681240;85;21037;-78
2021/05/16 04:45:17;;;;;;;5.53;3.00;;;;;;;11.06;84.72;96918.22;1681338;85;21490;-78
2021/05/16 04:47:45;;;;;;;4.72;2.75;;;;;;;11.12;84.47;96919.23;1681087;85;21056;-78
2021/05/16 04:50:14;;;;;;;4.65;3.27;;;;;;;11.15;84.70;96916.44;1704266;84;21098;-78
2021/05/16 04:52:40;;;;;;;4.45;3.50;;;;;;;11.20;84.44;96918.40;1682498;84;21072;-78
2021/05/16 04:55:08;;;;;;;5.20;3.45;;;;;;;11.28;84.21;96919.80;1676844;84;21104;-78
2021/05/16 04:57:35;;;;;;;3.22;2.75;;;;;;;11.30;83.91;96928.06;1676710;85;21097;-78
2021/05/16 05:00:03;;;;;;;5.33;3.83;;;;;;;11.38;83.60;96925.03;1676650;85;21041;-78
2021/05/16 05:02:30;;;;;;;4.95;2.77;;;;;;;11.45;83.01;96924.25;1676710;84;21084;-78
2021/05/16 05:04:57;;;;;;;4.83;2.87;;;;;;;11.53;82.86;96918.56;1655550;85;21061;-78
2021/05/16 05:07:23;;;;;;;7.95;3.02;;;;;;;11.60;82.62;96918.20;1676646;85;21104;-78
2021/05/16 05:09:50;;;;;;;3.50;3.20;;;;;;;11.68;82.38;96919.13;1676788;85;21065;-78
2021/05/16 05:12:17;;;;;;;4.05;2.90;;;;;;;11.76;82.13;96910.77;1676664;85;21060;-78
2021/05/16 05:14:44;;;;;;;3.40;2.98;;;;;;;11.87;82.15;96908.86;1676615;85;21579;-78
2021/05/16 05:17:10;;;;;;;4.65;3.20;;;;;;;11.99;81.98;96905.57;1676705;85;21041;-78
2021/05/16 05:19:37;;;;;;;4.87;3.17;;;;;;;12.14;81.43;96904.40;1676691;85;21531;-78
2021/05/16 05:22:03;;;;;;;6.78;3.05;;;;;;;12.28;81.17;96905.84;1676718;84;21033;-78
2021/05/16 05:24:30;;;;;;;8.45;3.75;;;;;;;12.39;80.50;96906.59;1676643;84;21108;-79
2021/05/16 05:26:57;;;;;;;4.78;3.20;;;;;;;12.58;81.00;96906.89;1676700;85;21055;-78
2021/05/16 05:29:23;;;;;;;4.83;3.00;;;;;;;12.76;80.72;96906.82;1676645;85;21087;-78
2021/05/16 05:31:50;;;;;;;3.47;2.40;;;;;;;12.92;79.54;96908.98;1676720;84;21053;-78
2021/05/16 05:34:16;;;;;;;5.00;3.17;;;;;;;13.09;80.31;96908.98;1684378;84;21064;-79
2021/05/16 05:36:43;;;;;;;5.35;3.10;;;;;;;13.24;78.96;96909.42;1711261;84;21056;-78
2021/05/16 05:39:11;;;;;;;4.37;3.25;;;;;;;13.35;78.92;96911.47;1711284;84;21627;-78
2021/05/16 05:41:38;;;;;;;3.65;3.30;;;;;;;13.45;78.68;96915.30;1711261;83;21497;-78
2021/05/16 05:44:05;;;;;;;5.53;3.30;;;;;;;13.56;77.70;96918.70;1711226;83;21057;-79
2021/05/16 05:46:32;;;;;;;3.50;3.20;;;;;;;13.66;78.25;96920.33;1711326;83;21060;-79
2021/05/16 05:48:58;;;;;;;5.42;3.58;;;;;;;13.75;77.43;96918.94;1711201;83;21075;-78
2021/05/16 05:51:24;;;;;;;8.18;4.80;;;;;;;13.84;77.85;96927.68;1711285;84;21032;-78
2021/05/16 05:53:51;;;;;;;7.97;6.03;;;;;;;13.89;77.00;96925.22;1711437;84;21052;-78
2021/05/16 05:56:18;;;;;;;14.07;8.18;;;;;;;13.93;76.78;96926.29;1711275;84;21566;-79
2021/05/16 05:58:44;;;;;;;16.05;8.40;;;;;;;13.95;76.97;96923.05;1711252;83;21080;-78
2021/05/16 06:01:11;;;;;;;10.35;8.68;;;;;;;13.96;77.16;96922.58;1711326;84;21048;-78
2021/05/16 06:03:37;;;;;;;11.70;9.10;;;;;;;13.96;77.09;96918.59;1711175;84;21040;-78
2021/05/16 06:06:04;;;;;;;10.90;9.20;;;;;;;13.96;77.01;96934.57;1711268;84;21524;-78
2021/05/16 06:08:33;;;;;;;12.13;8.40;;;;;;;13.99;77.10;96930.37;1711213;84;21087;-78
2021/05/16 06:10:59;;;;;;;9.85;8.60;;;;;;;13.98;77.10;96925.53;1710626;84;21076;-78
2021/05/16 06:13:26;;;;;;;9.53;8.18;;;;;;;13.99;76.89;96928.57;1711234;84;21155;-78
2021/05/16 06:15:52;;;;;;;32.85;25.80;;;;;;;13.99;76.84;96924.58;1711184;83;21529;-78
2021/05/16 06:18:19;;;;;;;14.58;10.23;;;;;;;13.98;76.83;96924.66;1711104;84;21052;-78
2021/05/16 06:20:45;;;;;;;14.23;10.68;;;;;;;14.01;77.12;96927.62;1711327;84;21047;-78
2021/05/16 06:23:13;;;;;;;10.90;8.83;;;;;;;14.02;77.24;96928.86;1711293;84;21052;-78
2021/05/16 06:25:40;;;;;;;9.40;8.38;;;;;;;14.03;76.90;96922.58;1711288;84;21111;-78
2021/05/16 06:28:06;;;;;;;8.50;7.70;;;;;;;14.03;77.48;96925.73;1711184;83;21037;-78
2021/05/16 06:30:33;;;;;;;10.05;7.92;;;;;;;14.03;77.77;96929.23;1711247;83;21513;-78
2021/05/16 06:33:00;;;;;;;9.35;7.65;;;;;;;14.04;77.62;96927.44;1711104;84;21032;-79
2021/05/16 06:35:26;;;;;;;9.85;7.50;;;;;;;14.10;77.60;96925.27;1716360;82;21111;-79
2021/05/16 06:37:53;;;;;;;10.38;7.60;;;;;;;14.14;78.29;96921.92;1713340;84;21127;-79
2021/05/16 06:40:20;;;;;;;8.65;7.60;;;;;;;14.21;77.92;96913.09;1713576;84;21040;-79
2021/05/16 06:42:46;;;;;;;8.13;6.17;;;;;;;14.29;77.50;96918.81;1713500;84;21052;-79
2021/05/16 06:45:14;;;;;;;7.95;5.95;;;;;;;14.33;77.24;96918.97;1693127;84;21091;-79
2021/05/16 06:47:41;;;;;;;7.33;5.42;;;;;;;14.38;77.34;96918.20;1713636;84;21063;-79
2021/05/16 06:50:09;;;;;;;6.00;4.85;;;;;;;14.41;77.11;96917.16;1713704;83;21099;-79
2021/05/16 06:52:36;;;;;;;4.75;4.25;;;;;;;14.48;76.50;96916.30;1713406;84;21047;-79
2021/05/16 06:55:04;;;;;;;8.78;4.47;;;;;;;14.50;76.39;96908.58;1713405;83;21423;-79
2021/05/16 06:57:31;;;;;;;6.85;5.47;;;;;;;14.51;76.97;96908.12;1713522;84;21051;-79
2021/05/16 06:59:58;;;;;;;8.33;4.50;;;;;;;14.54;77.15;96909.27;1713307;84;21040;-78
2021/05/16 07:02:24;;;;;;;9.40;4.15;;;;;;;14.59;77.38;96904.50;1713570;83;21528;-78
2021/05/16 07:04:50;;;;;;;6.30;4.00;;;;;;;14.68;76.94;96892.84;1713520;84;21048;-78
2021/05/16 07:07:17;;;;;;;7.20;5.92;;;;;;;14.71;75.34;96899.33;1713963;83;21048;-78
2021/05/16 07:09:44;;;;;;;9.85;5.83;;;;;;;14.73;75.01;96897.41;1713428;84;22213;-78
2021/05/16 07:12:11;;;;;;;7.87;6.92;;;;;;;14.82;75.43;96895.52;1713438;84;21505;-78
2021/05/16 07:14:37;;;;;;;10.53;8.10;;;;;;;14.94;74.97;96894.36;1713445;83;21048;-78
2021/05/16 07:17:03;;;;;;;22.98;16.23;;;;;;;15.08;75.27;96888.98;1713567;84;21055;-78
2021/05/16 07:19:30;;;;;;;12.93;8.63;;;;;;;15.25;74.92;96891.86;1713487;83;21488;-78
2021/05/16 07:21:56;;;;;;;5.17;4.35;;;;;;;15.42;74.57;96890.73;1713531;84;21118;-79
2021/05/16 07:24:23;;;;;;;5.80;4.15;;;;;;;15.63;73.48;96885.36;1713491;84;21143;-78
2021/05/16 07:26:50;;;;;;;5.97;3.85;;;;;;;15.81;73.71;96889.45;1713330;84;21656;-78
2021/05/16 07:29:17;;;;;;;3.98;3.58;;;;;;;16.01;73.50;96883.70;1713593;84;21098;-78
2021/05/16 07:31:44;;;;;;;6.15;3.98;;;;;;;16.19;72.89;96875.74;1713481;84;21127;-79
2021/05/16 07:34:11;;;;;;;5.28;3.98;;;;;;;16.36;72.37;96875.05;1713354;82;21048;-79
2021/05/16 07:36:38;;;;;;;7.42;3.58;;;;;;;16.53;71.43;96878.31;1713464;84;21059;-77
2021/05/16 07:39:05;;;;;;;6.80;3.80;;;;;;;16.70;71.31;96879.77;1713555;84;21068;-77
2021/05/16 07:41:32;;;;;;;3.47;2.92;;;;;;;16.93;71.13;96891.97;1713405;84;21120;-77
2021/05/16 07:43:58;;;;;;;3.30;3.00;;;;;;;17.17;70.86;96889.31;1713457;84;21513;-78
2021/05/16 07:46:24;;;;;;;7.37;3.42;;;;;;;17.42;68.54;96886.13;1713555;83;21048;-78
2021/05/16 07:48:51;;;;;;;6.08;3.17;;;;;;;17.60;67.94;96887.89;1713527;84;21048;-78
2021/05/16 07:51:17;;;;;;;3.50;3.00;;;;;;;17.75;66.47;96893.05;1713550;84;21072;-78
2021/05/16 07:53:44;;;;;;;3.98;3.55;;;;;;;17.98;67.09;96890.44;1713552;84;21043;-78
2021/05/16 07:56:10;;;;;;;6.47;3.98;;;;;;;18.11;67.25;96893.04;1713397;83;21067;-78
2021/05/16 07:58:37;;;;;;;5.42;4.30;;;;;;;18.26;66.68;96895.85;1713474;84;21035;-78
2021/05/16 08:01:04;;;;;;;5.47;4.30;;;;;;;18.31;64.83;96893.66;1713434;84;21143;-78
2021/05/16 08:03:30;;;;;;;5.37;3.60;;;;;;;18.36;64.80;96888.42;1713399;84;21016;-77
2021/05/16 08:05:58;;;;;;;5.65;3.90;;;;;;;18.29;62.73;96895.62;1713572;84;21044;-78
2021/05/16 08:08:25;;;;;;;6.67;4.28;;;;;;;18.27;64.52;96898.06;1713394;84;21083;-79
2021/05/16 08:10:52;;;;;;;6.35;4.28;;;;;;;18.25;64.29;96895.49;1713361;83;21044;-78
2021/05/16 08:13:18;;;;;;;5.20;4.33;;;;;;;18.23;64.39;96898.77;1713540;83;21135;-78
2021/05/16 08:15:45;;;;;;;4.85;4.12;;;;;;;18.13;63.28;96899.98;1713452;84;21075;-78
2021/05/16 08:18:12;;;;;;;6.25;3.75;;;;;;;17.91;62.99;96894.94;1713250;84;21052;-78
2021/05/16 08:20:39;;;;;;;4.65;4.08;;;;;;;17.84;64.04;96902.20;1713690;84;21043;-78
2021/05/16 08:23:06;;;;;;;4.97;3.60;;;;;;;17.74;64.66;96896.23;1713409;84;21327;-78
2021/05/16 08:25:34;;;;;;;4.45;4.05;;;;;;;17.66;65.05;96904.00;1713404;84;21047;-78
2021/05/16 08:28:00;;;;;;;4.05;3.58;;;;;;;17.63;66.00;96906.42;1713402;84;21190;-78
2021/05/16 08:30:28;;;;;;;5.45;4.17;;;;;;;17.63;66.06;96902.88;1713538;83;21129;-78
2021/05/16 08:32:56;;;;;;;4.65;4.17;;;;;;;17.60;66.25;96902.63;1713601;84;21035;-78
2021/05/16 08:35:23;;;;;;;5.85;4.33;;;;;;;17.56;66.58;96906.51;1710765;83;21225;-78
2021/05/16 08:37:50;;;;;;;4.40;3.65;;;;;;;17.52;66.63;96898.36;1683508;84;21057;-78
2021/05/16 08:40:17;;;;;;;5.92;4.50;;;;;;;17.53;67.17;96909.44;1676792;85;21048;-78
2021/05/16 08:42:44;;;;;;;6.33;4.58;;;;;;;17.51;67.81;96906.87;1676806;85;21526;-78
2021/05/16 08:45:13;;;;;;;7.42;4.55;;;;;;;17.42;68.40;96914.25;1676731;84;21060;-78
2021/05/16 08:47:45;;;;;;;5.25;4.47;;;;;;;17.31;68.32;96908.36;1677644;84;21506;-78
2021/05/16 08:50:16;;;;;;;6.35;4.90;;;;;;;17.25;68.87;96916.38;1676731;85;21059;-78
2021/05/16 08:52:43;;;;;;;7.15;5.20;;;;;;;17.25;68.99;96911.03;1676690;85;21104;-78
2021/05/16 08:55:13;;;;;;;8.30;5.65;;;;;;;17.15;69.89;96913.52;1676797;85;21072;-78
2021/05/16 08:57:41;;;;;;;6.33;5.72;;;;;;;17.13;70.46;96910.11;1676747;84;21079;-78
2021/05/16 09:00:18;;;;;;;5.75;5.15;;;;;;;17.07;70.91;96915.89;1676600;84;21533;-78
2021/05/16 09:03:12;;;;;;;6.92;5.08;;;;;;;17.05;72.37;96914.30;1676844;84;21057;-78
2021/05/16 09:05:43;;;;;;;5.20;4.70;;;;;;;17.06;73.41;96911.52;1676836;85;21056;-79
2021/05/16 09:08:22;;;;;;;5.40;4.90;;;;;;;17.06;72.04;96910.69;1676625;85;21076;-79
2021/05/16 09:10:56;;;;;;;4.75;4.20;;;;;;;17.08;72.39;96910.94;1676729;85;21052;-78
2021/05/16 09:13:30;;;;;;;;;;;;;;;17.11;72.59;96917.38;1678963;85;21100;-78
2021/05/16 09:16:11;;;;;;;5.97;4.35;;;;;;;17.14;72.76;96915.83;1676758;85;20427;-78
2021/05/16 09:18:54;;;;;;;3.85;3.55;;;;;;;17.14;73.00;96906.46;1676606;84;21072;-79
2021/05/16 09:21:33;;;;;;;4.28;3.30;;;;;;;17.17;72.79;96911.20;1676614;85;21112;-78
2021/05/16 09:24:06;;;;;;;5.90;3.90;;;;;;;17.18;72.49;96902.23;1676701;84;21085;-78
2021/05/16 09:26:56;;;;;;;4.83;2.85;;;;;;;17.20;71.28;96895.80;1676678;85;21517;-78
2021/05/16 09:29:27;;;;;;;3.05;2.50;;;;;;;17.20;69.96;96893.59;1676630;85;21410;-77
2021/05/16 09:31:55;;;;;;;3.22;2.52;;;;;;;17.21;70.75;96896.63;1655665;85;21084;-77
2021/05/16 09:34:22;;;;;;;4.00;2.65;;;;;;;17.18;69.79;96900.39;1676504;85;21827;-77
2021/05/16 09:36:50;;;;;;;3.35;2.47;;;;;;;17.18;69.72;96892.36;1709088;83;21076;-77
2021/05/16 09:39:22;;;;;;;3.72;2.52;;;;;;;17.21;69.72;96891.27;1712614;83;21143;-78
2021/05/16 09:42:14;;;;;;;3.12;2.35;;;;;;;17.22;69.84;96887.62;1711253;83;21075;-79
2021/05/16 09:44:48;;;;;;;4.00;2.58;;;;;;;17.23;69.62;96890.19;1711327;84;21465;-77
2021/05/16 09:47:26;;;;;;;3.52;2.20;;;;;;;17.24;69.45;96891.89;1710722;84;21044;-78
2021/05/16 09:49:59;;;;;;;3.50;2.30;;;;;;;17.26;69.09;96891.78;1711365;83;21071;-77
2021/05/16 09:52:35;;;;;;;3.70;2.27;;;;;;;17.28;68.68;96888.02;1711251;83;21051;-77
2021/05/16 09:55:13;;;;;;;4.92;2.30;;;;;;;17.25;67.75;96897.64;1711155;84;21047;-79
2021/05/16 09:57:42;;;;;;;2.40;2.20;;;;;;;17.25;67.33;96893.63;1710859;84;21028;-78
2021/05/16 10:00:11;;;;;;;3.67;2.27;;;;;;;17.28;67.78;96901.41;1711181;84;21087;-78
2021/05/16 10:02:40;;;;;;;2.75;2.47;;;;;;;17.37;67.98;96895.88;1711223;84;21047;-78
2021/05/16 10:05:10;;;;;;;3.25;2.40;;;;;;;17.44;66.67;96890.05;1711208;84;21087;-77
2021/05/16 10:07:38;;;;;;;4.65;3.00;;;;;;;17.49;67.03;96890.55;1711213;84;21023;-77
2021/05/16 10:10:07;;;;;;;3.98;2.40;;;;;;;17.60;67.42;96888.40;1711107;84;21541;-78
2021/05/16 10:12:36;;;;;;;4.53;2.70;;;;;;;17.73;67.34;96886.47;1711301;84;21012;-77
2021/05/16 10:15:14;;;;;;;2.83;2.10;;;;;;;17.92;67.08;96881.90;1711179;84;21063;-77
2021/05/16 10:17:44;;;;;;;5.55;2.35;;;;;;;18.08;66.97;96876.70;1711441;84;21031;-77
2021/05/16 10:20:18;;;;;;;3.65;2.20;;;;;;;18.25;65.72;96873.17;1710891;84;21060;-77
2021/05/16 10:23:00;;;;;;;3.50;2.35;;;;;;;18.38;66.11;96878.41;1690735;84;21056;-77
2021/05/16 10:25:46;;;;;;;3.98;2.30;;;;;;;18.47;64.90;96875.86;1711380;84;21068;-77
2021/05/16 10:28:16;;;;;;;2.95;2.50;;;;;;;18.56;64.10;96878.29;1711198;83;21084;-77
2021/05/16 10:31:09;;;;;;;3.05;2.20;;;;;;;18.59;63.96;96871.34;1711113;84;21084;-77
2021/05/16 10:33:39;;;;;;;4.75;2.30;;;;;;;18.73;64.14;96864.84;1672541;84;21096;-78
2021/05/16 10:36:06;;;;;;;1.87;1.72;;;;;;;18.90;63.73;96865.80;1719686;82;21079;-77
2021/05/16 10:38:42;;;;;;;2.65;1.85;;;;;;;19.08;63.14;96867.48;1716491;83;21556;-77
2021/05/16 10:41:24;;;;;;;3.02;2.00;;;;;;;19.32;63.01;96867.77;1713487;83;21076;-77
2021/05/16 10:44:13;;;;;;;2.62;2.27;;;;;;;19.60;62.72;96866.80;1713413;83;21043;-78
2021/05/16 10:46:43;;;;;;;3.05;2.27;;;;;;;19.79;60.57;96862.03;1677598;85;21585;-78
2021/05/16 10:49:30;;;;;;;4.55;1.98;;;;;;;19.92;61.66;96860.48;1663118;86;21088;-77
2021/05/16 10:51:56;;;;;;;2.80;1.90;;;;;;;20.00;61.14;96863.88;1695841;83;21040;-77
2021/05/16 10:54:34;;;;;;;3.75;2.10;;;;;;;20.22;61.03;96856.66;1713697;84;21084;-77
2021/05/16 10:57:18;;;;;;;2.35;1.70;;;;;;;20.65;60.28;96851.52;1713633;83;21087;-78
2021/05/16 10:59:45;;;;;;;5.45;2.40;;;;;;;21.09;59.47;96844.45;1713556;84;21572;-77
2021/05/16 11:02:25;;;;;;;3.83;2.00;;;;;;;22.07;58.40;96847.23;1713451;83;21102;-78
2021/05/16 11:04:52;;;;;;;12.78;5.08;;;;;;;22.80;52.97;96841.62;1699935;83;21036;-78
2021/05/16 11:07:35;;;;;;;9.38;7.03;;;;;;;22.88;52.10;96833.59;1713499;84;21044;-78
2021/05/16 11:10:26;;;;;;;4.30;2.00;;;;;;;22.65;52.33;96843.48;1713717;83;21510;-78
2021/05/16 11:13:06;;;;;;;3.12;1.92;;;;;;;22.71;52.51;96833.91;1713395;84;21084;-77
2021/05/16 11:15:35;;;;;;;1.92;1.72;;;;;;;22.96;50.97;96830.65;1713156;82;21657;-77
2021/05/16 11:18:07;;;;;;;3.90;1.80;;;;;;;23.20;50.71;96827.33;1713433;84;21055;-77
2021/05/16 11:20:35;;;;;;;3.33;1.72;;;;;;;23.32;48.93;96817.14;1713398;84;21076;-77
2021/05/16 11:23:01;;;;;;;4.67;2.02;;;;;;;23.56;49.04;96826.50;1713332;83;21574;-77
2021/05/16 11:25:28;;;;;;;3.87;2.00;;;;;;;23.63;48.86;96824.02;1713278;84;21095;-78
2021/05/16 11:27:54;;;;;;;3.30;1.92;;;;;;;23.58;49.19;96814.52;1713572;84;21512;-78
2021/05/16 11:30:27;;;;;;;3.50;1.50;;;;;;;23.38;48.60;96812.52;1713490;83;21151;-78
2021/05/16 11:32:54;;;;;;;3.05;1.30;;;;;;;23.25;47.54;96812.85;1713443;84;21043;-78
2021/05/16 11:35:22;;;;;;;3.22;1.30;;;;;;;23.17;46.30;96812.27;1713980;82;21139;-78
2021/05/16 11:37:52;;;;;;;2.95;1.30;;;;;;;22.98;39.71;96807.87;1722339;83;21430;-78
2021/05/16 11:40:36;;;;;;;3.02;1.47;;;;;;;22.70;43.83;96797.11;1711000;84;21568;-78
2021/05/16 11:43:07;;;;;;;2.12;1.67;;;;;;;22.41;42.32;96808.89;1710539;84;21159;-78